sensor_id;sensor_type;location;lat;lon;timestamp;P1;durP1;ratioP1;P2;durP2;ratioP2
39890;SDS011;25564;53.312;9.790;2023-03-31T00:01:43;21.83;;;3.87;;
39890;SDS011;25564;53.312;9.790;2023-03-31T00:04:15;9.73;;;2.50;;
39890;SDS011;25564;53.312;9.790;2023-03-31T00:06:46;7.17;;;2.33;;
39890;SDS011;25564;53.312;9.790;2023-03-31T00:09:18;14.43;;;2.73;;
39890;SDS011;25564;53.312;9.790;2023-03-31T00:11:52;13.40;;;2.73;;
39890;SDS011;25564;53.312;9.790;2023-03-31T00:14:25;9.37;;;2.33;;
39890;SDS011;25564;53.312;9.790;2023-03-31T00:16:56;10.43;;;2.93;;
39890;SDS011;25564;53.312;9.790;2023-03-31T00:19:28;14.87;;;2.67;;
39890;SDS011;25564;53.312;9.790;2023-03-31T00:22:03;11.50;;;2.70;;
39890;SDS011;25564;53.312;9.790;2023-03-31T00:24:35;11.57;;;2.80;;
39890;SDS011;25564;53.312;9.790;2023-03-31T00:27:07;16.23;;;3.57;;
39890;SDS011;25564;53.312;9.790;2023-03-31T00:29:39;10.43;;;2.47;;
39890;SDS011;25564;53.312;9.790;2023-03-31T00:32:11;15.37;;;3.10;;
39890;SDS011;25564;53.312;9.790;2023-03-31T00:34:44;10.17;;;2.50;;
39890;SDS011;25564;53.312;9.790;2023-03-31T00:37:16;13.13;;;4.47;;
39890;SDS011;25564;53.312;9.790;2023-03-31T00:39:47;18.00;;;4.70;;
39890;SDS011;25564;53.312;9.790;2023-03-31T00:42:19;13.10;;;5.10;;
39890;SDS011;25564;53.312;9.790;2023-03-31T00:47:45;13.27;;;4.80;;
39890;SDS011;25564;53.312;9.790;2023-03-31T00:50:22;16.00;;;5.83;;
39890;SDS011;25564;53.312;9.790;2023-03-31T00:53:04;11.67;;;4.00;;
39890;SDS011;25564;53.312;9.790;2023-03-31T00:55:41;13.30;;;3.93;;
39890;SDS011;25564;53.312;9.790;2023-03-31T00:58:16;12.47;;;2.63;;
39890;SDS011;25564;53.312;9.790;2023-03-31T01:00:50;9.93;;;3.27;;
39890;SDS011;25564;53.312;9.790;2023-03-31T01:03:23;10.37;;;4.30;;
39890;SDS011;25564;53.312;9.790;2023-03-31T01:05:56;13.53;;;4.30;;
39890;SDS011;25564;53.312;9.790;2023-03-31T01:08:36;12.53;;;4.03;;
39890;SDS011;25564;53.312;9.790;2023-03-31T01:11:11;15.87;;;4.50;;
39890;SDS011;25564;53.312;9.790;2023-03-31T01:16:21;19.57;;;5.70;;
39890;SDS011;25564;53.312;9.790;2023-03-31T01:18:53;10.27;;;4.10;;
39890;SDS011;25564;53.312;9.790;2023-03-31T01:33:08;9.80;;;4.00;;
39890;SDS011;25564;53.312;9.790;2023-03-31T01:36:11;9.00;;;4.10;;
39890;SDS011;25564;53.312;9.790;2023-03-31T01:48:12;15.80;;;5.60;;
39890;SDS011;25564;53.312;9.790;2023-03-31T01:50:55;16.90;;;5.30;;
39890;SDS011;25564;53.312;9.790;2023-03-31T01:53:32;11.20;;;3.93;;
39890;SDS011;25564;53.312;9.790;2023-03-31T02:02:24;12.03;;;4.67;;
39890;SDS011;25564;53.312;9.790;2023-03-31T02:05:02;11.60;;;4.10;;
39890;SDS011;25564;53.312;9.790;2023-03-31T02:07:43;14.67;;;4.30;;
39890;SDS011;25564;53.312;9.790;2023-03-31T02:10:20;8.97;;;4.10;;
39890;SDS011;25564;53.312;9.790;2023-03-31T02:12:54;11.50;;;3.60;;
39890;SDS011;25564;53.312;9.790;2023-03-31T02:15:33;12.47;;;4.03;;
39890;SDS011;25564;53.312;9.790;2023-03-31T02:18:09;10.27;;;3.77;;
39890;SDS011;25564;53.312;9.790;2023-03-31T02:20:44;11.05;;;4.53;;
39890;SDS011;25564;53.312;9.790;2023-03-31T02:23:20;9.73;;;3.67;;
39890;SDS011;25564;53.312;9.790;2023-03-31T02:26:01;14.13;;;4.27;;
39890;SDS011;25564;53.312;9.790;2023-03-31T02:28:46;13.23;;;4.90;;
39890;SDS011;25564;53.312;9.790;2023-03-31T02:31:22;19.00;;;4.60;;
39890;SDS011;25564;53.312;9.790;2023-03-31T02:33:59;14.87;;;4.17;;
39890;SDS011;25564;53.312;9.790;2023-03-31T02:36:32;16.03;;;4.63;;
39890;SDS011;25564;53.312;9.790;2023-03-31T02:39:06;11.33;;;4.63;;
39890;SDS011;25564;53.312;9.790;2023-03-31T02:41:41;9.90;;;4.23;;
39890;SDS011;25564;53.312;9.790;2023-03-31T02:44:13;12.17;;;4.30;;
39890;SDS011;25564;53.312;9.790;2023-03-31T02:46:47;16.87;;;4.30;;
39890;SDS011;25564;53.312;9.790;2023-03-31T02:49:20;11.43;;;4.30;;
39890;SDS011;25564;53.312;9.790;2023-03-31T02:54:52;16.37;;;4.37;;
39890;SDS011;25564;53.312;9.790;2023-03-31T02:57:51;16.13;;;5.00;;
39890;SDS011;25564;53.312;9.790;2023-03-31T03:00:32;13.43;;;4.53;;
39890;SDS011;25564;53.312;9.790;2023-03-31T03:03:14;12.60;;;4.37;;
39890;SDS011;25564;53.312;9.790;2023-03-31T03:06:17;17.33;;;5.30;;
39890;SDS011;25564;53.312;9.790;2023-03-31T03:09:06;13.47;;;4.23;;
39890;SDS011;25564;53.312;9.790;2023-03-31T03:14:42;13.65;;;5.82;;
39890;SDS011;25564;53.312;9.790;2023-03-31T03:17:22;13.80;;;4.67;;
39890;SDS011;25564;53.312;9.790;2023-03-31T03:19:59;16.30;;;5.13;;
39890;SDS011;25564;53.312;9.790;2023-03-31T03:22:32;15.87;;;5.50;;
39890;SDS011;25564;53.312;9.790;2023-03-31T03:25:06;14.00;;;5.27;;
39890;SDS011;25564;53.312;9.790;2023-03-31T03:30:12;18.37;;;5.57;;
39890;SDS011;25564;53.312;9.790;2023-03-31T03:32:44;14.47;;;6.63;;
39890;SDS011;25564;53.312;9.790;2023-03-31T03:35:16;25.30;;;5.93;;
39890;SDS011;25564;53.312;9.790;2023-03-31T03:37:47;15.03;;;5.97;;
39890;SDS011;25564;53.312;9.790;2023-03-31T03:40:19;16.87;;;6.17;;
39890;SDS011;25564;53.312;9.790;2023-03-31T03:42:51;21.37;;;7.87;;
39890;SDS011;25564;53.312;9.790;2023-03-31T03:45:22;13.83;;;5.50;;
39890;SDS011;25564;53.312;9.790;2023-03-31T03:47:53;16.40;;;6.93;;
39890;SDS011;25564;53.312;9.790;2023-03-31T03:50:25;15.83;;;6.97;;
39890;SDS011;25564;53.312;9.790;2023-03-31T03:52:57;13.90;;;6.20;;
39890;SDS011;25564;53.312;9.790;2023-03-31T03:55:28;20.77;;;7.70;;
39890;SDS011;25564;53.312;9.790;2023-03-31T03:58:00;20.20;;;7.07;;
39890;SDS011;25564;53.312;9.790;2023-03-31T04:00:32;13.27;;;6.83;;
39890;SDS011;25564;53.312;9.790;2023-03-31T04:03:04;15.97;;;6.77;;
39890;SDS011;25564;53.312;9.790;2023-03-31T04:05:35;16.30;;;6.17;;
39890;SDS011;25564;53.312;9.790;2023-03-31T04:08:06;16.63;;;6.10;;
39890;SDS011;25564;53.312;9.790;2023-03-31T04:10:42;13.97;;;5.90;;
39890;SDS011;25564;53.312;9.790;2023-03-31T04:13:19;17.43;;;6.27;;
39890;SDS011;25564;53.312;9.790;2023-03-31T04:15:51;14.80;;;5.63;;
39890;SDS011;25564;53.312;9.790;2023-03-31T04:18:22;12.07;;;4.93;;
39890;SDS011;25564;53.312;9.790;2023-03-31T04:20:54;14.27;;;5.90;;
39890;SDS011;25564;53.312;9.790;2023-03-31T04:23:34;12.60;;;5.20;;
39890;SDS011;25564;53.312;9.790;2023-03-31T04:26:17;14.50;;;5.37;;
39890;SDS011;25564;53.312;9.790;2023-03-31T04:28:48;16.20;;;5.00;;
39890;SDS011;25564;53.312;9.790;2023-03-31T04:31:21;14.03;;;5.50;;
39890;SDS011;25564;53.312;9.790;2023-03-31T04:33:56;21.17;;;5.40;;
39890;SDS011;25564;53.312;9.790;2023-03-31T04:36:32;14.10;;;5.37;;
39890;SDS011;25564;53.312;9.790;2023-03-31T04:39:04;13.97;;;5.67;;
39890;SDS011;25564;53.312;9.790;2023-03-31T04:41:35;12.30;;;4.80;;
39890;SDS011;25564;53.312;9.790;2023-03-31T04:44:07;11.87;;;5.20;;
39890;SDS011;25564;53.312;9.790;2023-03-31T04:46:38;14.27;;;4.57;;
39890;SDS011;25564;53.312;9.790;2023-03-31T04:49:10;13.33;;;5.33;;
39890;SDS011;25564;53.312;9.790;2023-03-31T04:51:41;14.80;;;5.23;;
39890;SDS011;25564;53.312;9.790;2023-03-31T04:54:13;10.17;;;4.40;;
39890;SDS011;25564;53.312;9.790;2023-03-31T04:56:44;12.87;;;5.07;;
39890;SDS011;25564;53.312;9.790;2023-03-31T04:59:16;10.23;;;5.00;;
39890;SDS011;25564;53.312;9.790;2023-03-31T05:01:47;12.33;;;4.50;;
39890;SDS011;25564;53.312;9.790;2023-03-31T05:04:19;11.63;;;4.60;;
39890;SDS011;25564;53.312;9.790;2023-03-31T05:06:51;13.90;;;5.10;;
39890;SDS011;25564;53.312;9.790;2023-03-31T05:09:22;14.23;;;5.73;;
39890;SDS011;25564;53.312;9.790;2023-03-31T05:11:54;14.40;;;4.53;;
39890;SDS011;25564;53.312;9.790;2023-03-31T05:14:26;16.10;;;5.13;;
39890;SDS011;25564;53.312;9.790;2023-03-31T05:16:57;10.60;;;4.40;;
39890;SDS011;25564;53.312;9.790;2023-03-31T05:19:29;9.50;;;4.40;;
39890;SDS011;25564;53.312;9.790;2023-03-31T05:22:01;14.07;;;5.10;;
39890;SDS011;25564;53.312;9.790;2023-03-31T05:24:33;12.37;;;4.53;;
39890;SDS011;25564;53.312;9.790;2023-03-31T05:27:04;11.87;;;4.57;;
39890;SDS011;25564;53.312;9.790;2023-03-31T05:29:37;11.47;;;4.90;;
39890;SDS011;25564;53.312;9.790;2023-03-31T05:32:09;12.30;;;4.20;;
39890;SDS011;25564;53.312;9.790;2023-03-31T05:34:40;17.50;;;5.23;;
39890;SDS011;25564;53.312;9.790;2023-03-31T05:37:13;15.90;;;4.73;;
39890;SDS011;25564;53.312;9.790;2023-03-31T05:39:44;11.57;;;4.40;;
39890;SDS011;25564;53.312;9.790;2023-03-31T05:42:16;10.23;;;4.33;;
39890;SDS011;25564;53.312;9.790;2023-03-31T05:44:48;10.97;;;4.97;;
39890;SDS011;25564;53.312;9.790;2023-03-31T05:47:19;12.47;;;4.00;;
39890;SDS011;25564;53.312;9.790;2023-03-31T05:49:51;9.87;;;3.77;;
39890;SDS011;25564;53.312;9.790;2023-03-31T05:52:23;13.20;;;4.97;;
39890;SDS011;25564;53.312;9.790;2023-03-31T05:54:54;10.40;;;3.93;;
39890;SDS011;25564;53.312;9.790;2023-03-31T05:57:26;13.83;;;5.03;;
39890;SDS011;25564;53.312;9.790;2023-03-31T05:59:57;14.20;;;5.03;;
39890;SDS011;25564;53.312;9.790;2023-03-31T06:02:29;12.30;;;4.30;;
39890;SDS011;25564;53.312;9.790;2023-03-31T06:05:00;11.57;;;4.17;;
39890;SDS011;25564;53.312;9.790;2023-03-31T06:07:32;13.07;;;4.43;;
39890;SDS011;25564;53.312;9.790;2023-03-31T06:10:03;12.63;;;4.17;;
39890;SDS011;25564;53.312;9.790;2023-03-31T06:12:38;11.90;;;4.60;;
39890;SDS011;25564;53.312;9.790;2023-03-31T06:15:09;10.83;;;3.90;;
39890;SDS011;25564;53.312;9.790;2023-03-31T06:17:41;14.00;;;5.00;;
39890;SDS011;25564;53.312;9.790;2023-03-31T06:20:13;8.73;;;4.30;;
39890;SDS011;25564;53.312;9.790;2023-03-31T06:22:58;13.23;;;3.97;;
39890;SDS011;25564;53.312;9.790;2023-03-31T06:25:29;7.67;;;3.73;;
39890;SDS011;25564;53.312;9.790;2023-03-31T06:28:18;14.17;;;4.40;;
39890;SDS011;25564;53.312;9.790;2023-03-31T06:30:58;10.77;;;3.33;;
39890;SDS011;25564;53.312;9.790;2023-03-31T06:33:32;10.47;;;3.20;;
39890;SDS011;25564;53.312;9.790;2023-03-31T06:36:04;9.63;;;3.90;;
39890;SDS011;25564;53.312;9.790;2023-03-31T06:38:38;7.57;;;3.47;;
39890;SDS011;25564;53.312;9.790;2023-03-31T06:41:11;10.97;;;3.70;;
39890;SDS011;25564;53.312;9.790;2023-03-31T06:43:44;9.87;;;3.60;;
39890;SDS011;25564;53.312;9.790;2023-03-31T06:46:16;10.03;;;3.07;;
39890;SDS011;25564;53.312;9.790;2023-03-31T06:48:48;10.73;;;3.70;;
39890;SDS011;25564;53.312;9.790;2023-03-31T06:51:20;11.17;;;3.70;;
39890;SDS011;25564;53.312;9.790;2023-03-31T06:53:51;10.40;;;4.40;;
39890;SDS011;25564;53.312;9.790;2023-03-31T06:56:23;8.63;;;3.03;;
39890;SDS011;25564;53.312;9.790;2023-03-31T06:58:54;6.73;;;3.30;;
39890;SDS011;25564;53.312;9.790;2023-03-31T07:01:26;6.97;;;3.00;;
39890;SDS011;25564;53.312;9.790;2023-03-31T07:03:57;7.97;;;3.13;;
39890;SDS011;25564;53.312;9.790;2023-03-31T07:06:29;8.33;;;2.93;;
39890;SDS011;25564;53.312;9.790;2023-03-31T07:09:02;13.27;;;2.93;;
39890;SDS011;25564;53.312;9.790;2023-03-31T07:11:34;6.77;;;3.07;;
39890;SDS011;25564;53.312;9.790;2023-03-31T07:14:05;5.03;;;2.60;;
39890;SDS011;25564;53.312;9.790;2023-03-31T07:16:37;11.10;;;2.40;;
39890;SDS011;25564;53.312;9.790;2023-03-31T07:19:09;7.20;;;2.20;;
39890;SDS011;25564;53.312;9.790;2023-03-31T07:21:41;10.17;;;3.30;;
39890;SDS011;25564;53.312;9.790;2023-03-31T07:24:12;7.67;;;2.67;;
39890;SDS011;25564;53.312;9.790;2023-03-31T07:26:44;9.17;;;2.23;;
39890;SDS011;25564;53.312;9.790;2023-03-31T07:29:15;7.83;;;2.70;;
39890;SDS011;25564;53.312;9.790;2023-03-31T07:31:47;3.73;;;2.17;;
39890;SDS011;25564;53.312;9.790;2023-03-31T07:34:18;7.20;;;2.03;;
39890;SDS011;25564;53.312;9.790;2023-03-31T07:36:50;9.50;;;2.87;;
39890;SDS011;25564;53.312;9.790;2023-03-31T07:39:25;8.50;;;2.60;;
39890;SDS011;25564;53.312;9.790;2023-03-31T07:41:56;5.87;;;2.87;;
39890;SDS011;25564;53.312;9.790;2023-03-31T07:44:28;10.13;;;2.80;;
39890;SDS011;25564;53.312;9.790;2023-03-31T07:47:00;4.93;;;1.90;;
39890;SDS011;25564;53.312;9.790;2023-03-31T07:52:07;4.70;;;1.90;;
39890;SDS011;25564;53.312;9.790;2023-03-31T07:54:39;5.80;;;1.90;;
39890;SDS011;25564;53.312;9.790;2023-03-31T07:57:10;7.17;;;2.23;;
39890;SDS011;25564;53.312;9.790;2023-03-31T07:59:42;4.93;;;1.93;;
39890;SDS011;25564;53.312;9.790;2023-03-31T08:02:14;6.33;;;2.07;;
39890;SDS011;25564;53.312;9.790;2023-03-31T08:04:47;5.17;;;2.03;;
39890;SDS011;25564;53.312;9.790;2023-03-31T08:07:18;5.97;;;2.37;;
39890;SDS011;25564;53.312;9.790;2023-03-31T08:09:50;6.40;;;2.10;;
39890;SDS011;25564;53.312;9.790;2023-03-31T08:12:22;4.90;;;1.70;;
39890;SDS011;25564;53.312;9.790;2023-03-31T08:14:53;5.33;;;1.73;;
39890;SDS011;25564;53.312;9.790;2023-03-31T08:17:25;6.07;;;1.77;;
39890;SDS011;25564;53.312;9.790;2023-03-31T08:19:57;4.43;;;1.57;;
39890;SDS011;25564;53.312;9.790;2023-03-31T08:22:35;6.53;;;1.53;;
39890;SDS011;25564;53.312;9.790;2023-03-31T08:25:09;7.27;;;2.00;;
39890;SDS011;25564;53.312;9.790;2023-03-31T08:27:41;6.53;;;2.10;;
39890;SDS011;25564;53.312;9.790;2023-03-31T08:30:12;10.83;;;2.27;;
39890;SDS011;25564;53.312;9.790;2023-03-31T08:32:45;5.13;;;1.97;;
39890;SDS011;25564;53.312;9.790;2023-03-31T08:35:17;6.03;;;2.50;;
39890;SDS011;25564;53.312;9.790;2023-03-31T08:37:49;5.47;;;1.93;;
39890;SDS011;25564;53.312;9.790;2023-03-31T08:40:24;5.77;;;1.90;;
39890;SDS011;25564;53.312;9.790;2023-03-31T08:42:59;3.87;;;2.30;;
39890;SDS011;25564;53.312;9.790;2023-03-31T08:45:37;7.30;;;2.00;;
39890;SDS011;25564;53.312;9.790;2023-03-31T08:50:59;3.60;;;1.70;;
39890;SDS011;25564;53.312;9.790;2023-03-31T08:53:38;5.60;;;2.07;;
39890;SDS011;25564;53.312;9.790;2023-03-31T08:56:18;8.10;;;2.33;;
39890;SDS011;25564;53.312;9.790;2023-03-31T08:58:52;4.37;;;1.90;;
39890;SDS011;25564;53.312;9.790;2023-03-31T09:07:14;7.70;;;1.80;;
39890;SDS011;25564;53.312;9.790;2023-03-31T09:18:27;3.20;;;1.73;;
39890;SDS011;25564;53.312;9.790;2023-03-31T09:23:52;6.90;;;2.23;;
39890;SDS011;25564;53.312;9.790;2023-03-31T09:29:20;4.33;;;1.87;;
39890;SDS011;25564;53.312;9.790;2023-03-31T09:32:01;6.57;;;2.20;;
39890;SDS011;25564;53.312;9.790;2023-03-31T09:34:52;7.70;;;2.00;;
39890;SDS011;25564;53.312;9.790;2023-03-31T09:37:31;5.30;;;2.40;;
39890;SDS011;25564;53.312;9.790;2023-03-31T09:40:03;3.77;;;2.10;;
39890;SDS011;25564;53.312;9.790;2023-03-31T09:42:37;8.60;;;2.43;;
39890;SDS011;25564;53.312;9.790;2023-03-31T09:45:13;4.83;;;2.07;;
39890;SDS011;25564;53.312;9.790;2023-03-31T09:47:54;3.73;;;1.87;;
39890;SDS011;25564;53.312;9.790;2023-03-31T09:50:28;4.80;;;1.70;;
39890;SDS011;25564;53.312;9.790;2023-03-31T09:53:03;5.70;;;2.10;;
39890;SDS011;25564;53.312;9.790;2023-03-31T09:55:40;7.67;;;1.67;;
39890;SDS011;25564;53.312;9.790;2023-03-31T09:58:20;5.93;;;2.00;;
39890;SDS011;25564;53.312;9.790;2023-03-31T10:00:58;3.87;;;1.70;;
39890;SDS011;25564;53.312;9.790;2023-03-31T10:03:32;4.83;;;1.83;;
39890;SDS011;25564;53.312;9.790;2023-03-31T10:06:08;4.53;;;2.00;;
39890;SDS011;25564;53.312;9.790;2023-03-31T10:08:46;4.60;;;1.53;;
39890;SDS011;25564;53.312;9.790;2023-03-31T10:11:24;2.80;;;1.17;;
39890;SDS011;25564;53.312;9.790;2023-03-31T10:14:09;6.60;;;1.80;;
39890;SDS011;25564;53.312;9.790;2023-03-31T10:16:52;4.53;;;1.90;;
39890;SDS011;25564;53.312;9.790;2023-03-31T10:19:26;5.60;;;1.37;;
39890;SDS011;25564;53.312;9.790;2023-03-31T10:22:01;4.80;;;1.53;;
39890;SDS011;25564;53.312;9.790;2023-03-31T10:24:45;6.37;;;2.10;;
39890;SDS011;25564;53.312;9.790;2023-03-31T10:29:59;4.80;;;1.50;;
39890;SDS011;25564;53.312;9.790;2023-03-31T10:32:40;5.30;;;1.27;;
39890;SDS011;25564;53.312;9.790;2023-03-31T10:37:54;3.27;;;1.30;;
39890;SDS011;25564;53.312;9.790;2023-03-31T10:40:29;3.30;;;1.20;;
39890;SDS011;25564;53.312;9.790;2023-03-31T10:43:07;4.50;;;1.80;;
39890;SDS011;25564;53.312;9.790;2023-03-31T10:48:33;3.67;;;1.53;;
39890;SDS011;25564;53.312;9.790;2023-03-31T10:53:47;4.50;;;1.30;;
39890;SDS011;25564;53.312;9.790;2023-03-31T11:21:48;2.50;;;1.40;;
39890;SDS011;25564;53.312;9.790;2023-03-31T11:35:52;4.90;;;2.13;;
39890;SDS011;25564;53.312;9.790;2023-03-31T11:38:52;4.07;;;2.10;;
39890;SDS011;25564;53.312;9.790;2023-03-31T11:41:35;3.80;;;2.20;;
39890;SDS011;25564;53.312;9.790;2023-03-31T11:44:12;7.13;;;2.40;;
39890;SDS011;25564;53.312;9.790;2023-03-31T11:46:47;3.97;;;1.63;;
39890;SDS011;25564;53.312;9.790;2023-03-31T11:49:26;3.60;;;2.27;;
39890;SDS011;25564;53.312;9.790;2023-03-31T11:51:59;4.50;;;2.57;;
39890;SDS011;25564;53.312;9.790;2023-03-31T11:57:25;4.70;;;1.90;;
39890;SDS011;25564;53.312;9.790;2023-03-31T12:00:18;5.57;;;2.23;;
39890;SDS011;25564;53.312;9.790;2023-03-31T12:03:10;5.20;;;1.77;;
39890;SDS011;25564;53.312;9.790;2023-03-31T12:05:48;6.03;;;2.10;;
39890;SDS011;25564;53.312;9.790;2023-03-31T12:08:40;7.20;;;2.80;;
39890;SDS011;25564;53.312;9.790;2023-03-31T12:14:13;5.43;;;2.27;;
39890;SDS011;25564;53.312;9.790;2023-03-31T12:16:53;5.97;;;2.50;;
39890;SDS011;25564;53.312;9.790;2023-03-31T12:24:57;7.13;;;2.43;;
39890;SDS011;25564;53.312;9.790;2023-03-31T12:27:39;5.23;;;1.87;;
39890;SDS011;25564;53.312;9.790;2023-03-31T12:30:13;3.00;;;1.87;;
39890;SDS011;25564;53.312;9.790;2023-03-31T12:47:50;3.70;;;1.47;;
39890;SDS011;25564;53.312;9.790;2023-03-31T12:53:38;3.00;;;1.40;;
39890;SDS011;25564;53.312;9.790;2023-03-31T12:56:15;2.97;;;2.27;;
39890;SDS011;25564;53.312;9.790;2023-03-31T12:58:49;2.87;;;1.53;;
39890;SDS011;25564;53.312;9.790;2023-03-31T13:01:21;2.23;;;1.40;;
39890;SDS011;25564;53.312;9.790;2023-03-31T13:04:39;5.47;;;2.13;;
39890;SDS011;25564;53.312;9.790;2023-03-31T13:06:55;3.73;;;1.53;;
39890;SDS011;25564;53.312;9.790;2023-03-31T13:12:07;3.07;;;1.60;;
39890;SDS011;25564;53.312;9.790;2023-03-31T13:14:44;2.20;;;1.40;;
39890;SDS011;25564;53.312;9.790;2023-03-31T13:20:43;2.47;;;1.50;;
39890;SDS011;25564;53.312;9.790;2023-03-31T13:22:59;2.97;;;1.40;;
39890;SDS011;25564;53.312;9.790;2023-03-31T13:25:34;1.83;;;1.30;;
39890;SDS011;25564;53.312;9.790;2023-03-31T13:28:14;3.73;;;1.90;;
39890;SDS011;25564;53.312;9.790;2023-03-31T13:31:01;5.03;;;1.43;;
39890;SDS011;25564;53.312;9.790;2023-03-31T13:41:53;1.97;;;1.20;;
39890;SDS011;25564;53.312;9.790;2023-03-31T13:47:59;1.30;;;0.90;;
39890;SDS011;25564;53.312;9.790;2023-03-31T13:50:36;2.30;;;1.10;;
39890;SDS011;25564;53.312;9.790;2023-03-31T13:53:35;2.40;;;1.23;;
39890;SDS011;25564;53.312;9.790;2023-03-31T13:56:41;2.05;;;1.20;;
39890;SDS011;25564;53.312;9.790;2023-03-31T14:05:44;2.67;;;1.00;;
39890;SDS011;25564;53.312;9.790;2023-03-31T14:14:12;2.93;;;0.93;;
39890;SDS011;25564;53.312;9.790;2023-03-31T14:16:55;1.10;;;0.53;;
39890;SDS011;25564;53.312;9.790;2023-03-31T14:22:26;2.00;;;0.93;;
39890;SDS011;25564;53.312;9.790;2023-03-31T14:25:31;1.15;;;0.80;;
39890;SDS011;25564;53.312;9.790;2023-03-31T14:31:51;1.00;;;0.70;;
39890;SDS011;25564;53.312;9.790;2023-03-31T14:34:33;1.80;;;0.90;;
39890;SDS011;25564;53.312;9.790;2023-03-31T14:37:36;3.33;;;0.90;;
39890;SDS011;25564;53.312;9.790;2023-03-31T14:40:09;1.73;;;0.90;;
39890;SDS011;25564;53.312;9.790;2023-03-31T14:42:46;3.73;;;1.00;;
39890;SDS011;25564;53.312;9.790;2023-03-31T14:45:24;2.37;;;0.80;;
39890;SDS011;25564;53.312;9.790;2023-03-31T14:47:57;3.57;;;0.77;;
39890;SDS011;25564;53.312;9.790;2023-03-31T14:50:34;1.43;;;0.77;;
39890;SDS011;25564;53.312;9.790;2023-03-31T14:53:11;0.97;;;0.70;;
39890;SDS011;25564;53.312;9.790;2023-03-31T14:55:44;2.07;;;1.10;;
39890;SDS011;25564;53.312;9.790;2023-03-31T14:58:30;2.60;;;0.90;;
39890;SDS011;25564;53.312;9.790;2023-03-31T15:01:06;2.50;;;0.98;;
39890;SDS011;25564;53.312;9.790;2023-03-31T15:03:41;1.10;;;0.80;;
39890;SDS011;25564;53.312;9.790;2023-03-31T15:06:13;2.07;;;1.20;;
39890;SDS011;25564;53.312;9.790;2023-03-31T15:08:46;3.40;;;1.00;;
39890;SDS011;25564;53.312;9.790;2023-03-31T15:11:17;1.47;;;0.90;;
39890;SDS011;25564;53.312;9.790;2023-03-31T15:13:51;2.10;;;1.10;;
39890;SDS011;25564;53.312;9.790;2023-03-31T15:16:36;1.00;;;0.90;;
39890;SDS011;25564;53.312;9.790;2023-03-31T15:19:18;3.10;;;1.10;;
39890;SDS011;25564;53.312;9.790;2023-03-31T15:21:56;2.20;;;1.40;;
39890;SDS011;25564;53.312;9.790;2023-03-31T15:24:32;3.03;;;1.90;;
39890;SDS011;25564;53.312;9.790;2023-03-31T15:27:08;3.30;;;1.43;;
39890;SDS011;25564;53.312;9.790;2023-03-31T15:30:00;1.27;;;1.05;;
39890;SDS011;25564;53.312;9.790;2023-03-31T15:32:36;2.38;;;1.02;;
39890;SDS011;25564;53.312;9.790;2023-03-31T15:35:16;2.47;;;1.60;;
39890;SDS011;25564;53.312;9.790;2023-03-31T15:37:56;2.58;;;1.08;;
39890;SDS011;25564;53.312;9.790;2023-03-31T15:40:38;1.97;;;1.13;;
39890;SDS011;25564;53.312;9.790;2023-03-31T15:45:56;6.73;;;1.50;;
39890;SDS011;25564;53.312;9.790;2023-03-31T15:48:33;2.70;;;1.40;;
39890;SDS011;25564;53.312;9.790;2023-03-31T15:53:45;3.17;;;1.30;;
39890;SDS011;25564;53.312;9.790;2023-03-31T15:56:33;2.53;;;1.27;;
39890;SDS011;25564;53.312;9.790;2023-03-31T16:02:22;1.70;;;1.00;;
39890;SDS011;25564;53.312;9.790;2023-03-31T16:04:57;2.23;;;1.13;;
39890;SDS011;25564;53.312;9.790;2023-03-31T16:07:31;1.77;;;1.00;;
39890;SDS011;25564;53.312;9.790;2023-03-31T16:10:15;1.87;;;0.90;;
39890;SDS011;25564;53.312;9.790;2023-03-31T16:12:52;2.43;;;0.90;;
39890;SDS011;25564;53.312;9.790;2023-03-31T16:15:43;1.90;;;0.90;;
39890;SDS011;25564;53.312;9.790;2023-03-31T16:18:32;3.57;;;1.47;;
39890;SDS011;25564;53.312;9.790;2023-03-31T16:21:10;1.50;;;1.00;;
39890;SDS011;25564;53.312;9.790;2023-03-31T16:23:43;2.47;;;1.20;;
39890;SDS011;25564;53.312;9.790;2023-03-31T16:26:22;1.67;;;0.80;;
39890;SDS011;25564;53.312;9.790;2023-03-31T16:28:55;1.80;;;0.70;;
39890;SDS011;25564;53.312;9.790;2023-03-31T16:34:06;1.67;;;0.90;;
39890;SDS011;25564;53.312;9.790;2023-03-31T16:36:39;2.73;;;0.80;;
39890;SDS011;25564;53.312;9.790;2023-03-31T16:39:11;0.63;;;0.63;;
39890;SDS011;25564;53.312;9.790;2023-03-31T16:41:42;1.70;;;0.80;;
39890;SDS011;25564;53.312;9.790;2023-03-31T16:44:13;3.20;;;1.20;;
39890;SDS011;25564;53.312;9.790;2023-03-31T16:46:45;2.13;;;1.20;;
39890;SDS011;25564;53.312;9.790;2023-03-31T16:49:17;4.40;;;1.40;;
39890;SDS011;25564;53.312;9.790;2023-03-31T16:51:48;3.30;;;1.40;;
39890;SDS011;25564;53.312;9.790;2023-03-31T16:54:20;2.70;;;1.03;;
39890;SDS011;25564;53.312;9.790;2023-03-31T16:56:51;1.87;;;1.17;;
39890;SDS011;25564;53.312;9.790;2023-03-31T16:59:23;6.50;;;2.20;;
39890;SDS011;25564;53.312;9.790;2023-03-31T17:01:55;2.27;;;1.47;;
39890;SDS011;25564;53.312;9.790;2023-03-31T17:04:26;2.90;;;1.10;;
39890;SDS011;25564;53.312;9.790;2023-03-31T17:06:58;1.57;;;1.00;;
39890;SDS011;25564;53.312;9.790;2023-03-31T17:09:29;2.57;;;0.87;;
39890;SDS011;25564;53.312;9.790;2023-03-31T17:12:01;2.13;;;0.93;;
39890;SDS011;25564;53.312;9.790;2023-03-31T17:14:33;4.63;;;1.57;;
39890;SDS011;25564;53.312;9.790;2023-03-31T17:17:04;9.57;;;4.37;;
39890;SDS011;25564;53.312;9.790;2023-03-31T17:19:36;3.90;;;2.03;;
39890;SDS011;25564;53.312;9.790;2023-03-31T17:22:07;3.93;;;1.37;;
39890;SDS011;25564;53.312;9.790;2023-03-31T17:24:39;4.67;;;1.30;;
39890;SDS011;25564;53.312;9.790;2023-03-31T17:27:10;3.80;;;1.10;;
39890;SDS011;25564;53.312;9.790;2023-03-31T17:29:43;2.40;;;1.10;;
39890;SDS011;25564;53.312;9.790;2023-03-31T17:32:15;5.03;;;1.07;;
39890;SDS011;25564;53.312;9.790;2023-03-31T17:34:48;4.10;;;1.17;;
39890;SDS011;25564;53.312;9.790;2023-03-31T17:37:19;1.30;;;0.90;;
39890;SDS011;25564;53.312;9.790;2023-03-31T17:39:51;4.23;;;1.10;;
39890;SDS011;25564;53.312;9.790;2023-03-31T17:42:23;2.53;;;0.97;;
39890;SDS011;25564;53.312;9.790;2023-03-31T17:44:54;3.47;;;1.07;;
39890;SDS011;25564;53.312;9.790;2023-03-31T17:47:26;2.77;;;1.00;;
39890;SDS011;25564;53.312;9.790;2023-03-31T17:49:58;2.30;;;1.17;;
39890;SDS011;25564;53.312;9.790;2023-03-31T17:52:30;2.70;;;1.23;;
39890;SDS011;25564;53.312;9.790;2023-03-31T17:55:02;3.87;;;1.10;;
39890;SDS011;25564;53.312;9.790;2023-03-31T17:57:34;2.20;;;1.30;;
39890;SDS011;25564;53.312;9.790;2023-03-31T18:00:07;1.80;;;1.30;;
39890;SDS011;25564;53.312;9.790;2023-03-31T18:02:40;4.47;;;1.17;;
39890;SDS011;25564;53.312;9.790;2023-03-31T18:05:12;3.53;;;1.10;;
39890;SDS011;25564;53.312;9.790;2023-03-31T18:07:47;4.47;;;1.00;;
39890;SDS011;25564;53.312;9.790;2023-03-31T18:10:19;5.77;;;1.30;;
39890;SDS011;25564;53.312;9.790;2023-03-31T18:12:52;2.20;;;0.80;;
39890;SDS011;25564;53.312;9.790;2023-03-31T18:15:25;3.40;;;1.10;;
39890;SDS011;25564;53.312;9.790;2023-03-31T18:17:56;4.77;;;1.00;;
39890;SDS011;25564;53.312;9.790;2023-03-31T18:20:27;3.03;;;1.00;;
39890;SDS011;25564;53.312;9.790;2023-03-31T18:22:59;2.17;;;1.10;;
39890;SDS011;25564;53.312;9.790;2023-03-31T18:25:31;3.67;;;1.07;;
39890;SDS011;25564;53.312;9.790;2023-03-31T18:28:02;2.23;;;1.30;;
39890;SDS011;25564;53.312;9.790;2023-03-31T18:30:35;4.10;;;1.40;;
39890;SDS011;25564;53.312;9.790;2023-03-31T18:33:08;6.20;;;2.10;;
39890;SDS011;25564;53.312;9.790;2023-03-31T18:35:41;5.10;;;1.60;;
39890;SDS011;25564;53.312;9.790;2023-03-31T18:38:12;3.50;;;1.47;;
39890;SDS011;25564;53.312;9.790;2023-03-31T18:40:48;4.60;;;1.13;;
39890;SDS011;25564;53.312;9.790;2023-03-31T18:45:55;2.67;;;1.50;;